sensor_id;sensor_type;location;lat;lon;timestamp;P1;durP1;ratioP1;P2;durP2;ratioP2
43678;SDS011;29279;50.858;4.392;2023-11-19T00:02:10;13.07;;;4.18;;
43678;SDS011;29279;50.858;4.392;2023-11-19T00:04:39;17.83;;;4.50;;
43678;SDS011;29279;50.858;4.392;2023-11-19T00:07:05;13.25;;;5.05;;
43678;SDS011;29279;50.858;4.392;2023-11-19T00:09:36;16.45;;;4.93;;
43678;SDS011;29279;50.858;4.392;2023-11-19T00:12:05;18.83;;;4.85;;
43678;SDS011;29279;50.858;4.392;2023-11-19T00:14:32;22.95;;;4.63;;
43678;SDS011;29279;50.858;4.392;2023-11-19T00:16:59;17.80;;;5.00;;
43678;SDS011;29279;50.858;4.392;2023-11-19T00:19:25;14.23;;;4.57;;
43678;SDS011;29279;50.858;4.392;2023-11-19T00:21:51;17.92;;;5.05;;
43678;SDS011;29279;50.858;4.392;2023-11-19T00:24:17;13.98;;;3.92;;
43678;SDS011;29279;50.858;4.392;2023-11-19T00:26:43;10.07;;;3.38;;
43678;SDS011;29279;50.858;4.392;2023-11-19T00:29:09;19.38;;;4.45;;
43678;SDS011;29279;50.858;4.392;2023-11-19T00:31:35;18.75;;;4.15;;
43678;SDS011;29279;50.858;4.392;2023-11-19T00:34:01;14.38;;;3.78;;
43678;SDS011;29279;50.858;4.392;2023-11-19T00:36:27;20.35;;;4.32;;
43678;SDS011;29279;50.858;4.392;2023-11-19T00:38:54;14.32;;;3.78;;
43678;SDS011;29279;50.858;4.392;2023-11-19T00:41:20;23.90;;;4.45;;
43678;SDS011;29279;50.858;4.392;2023-11-19T00:43:46;18.92;;;3.80;;
43678;SDS011;29279;50.858;4.392;2023-11-19T00:46:12;19.70;;;4.40;;
43678;SDS011;29279;50.858;4.392;2023-11-19T00:48:38;19.00;;;4.35;;
43678;SDS011;29279;50.858;4.392;2023-11-19T00:51:05;18.33;;;4.78;;
43678;SDS011;29279;50.858;4.392;2023-11-19T00:53:32;13.00;;;3.33;;
43678;SDS011;29279;50.858;4.392;2023-11-19T00:55:59;19.60;;;3.75;;
43678;SDS011;29279;50.858;4.392;2023-11-19T00:58:25;26.05;;;4.15;;
43678;SDS011;29279;50.858;4.392;2023-11-19T01:00:51;28.20;;;4.60;;
43678;SDS011;29279;50.858;4.392;2023-11-19T01:03:16;15.40;;;3.83;;
43678;SDS011;29279;50.858;4.392;2023-11-19T01:05:42;23.08;;;4.40;;
43678;SDS011;29279;50.858;4.392;2023-11-19T01:08:09;18.42;;;3.78;;
43678;SDS011;29279;50.858;4.392;2023-11-19T01:10:38;14.07;;;3.17;;
43678;SDS011;29279;50.858;4.392;2023-11-19T01:13:03;19.95;;;3.92;;
43678;SDS011;29279;50.858;4.392;2023-11-19T01:15:32;20.17;;;3.55;;
43678;SDS011;29279;50.858;4.392;2023-11-19T01:17:59;24.75;;;4.22;;
43678;SDS011;29279;50.858;4.392;2023-11-19T01:20:29;30.48;;;4.60;;
43678;SDS011;29279;50.858;4.392;2023-11-19T01:22:55;26.63;;;4.93;;
43678;SDS011;29279;50.858;4.392;2023-11-19T01:25:21;24.85;;;3.15;;
43678;SDS011;29279;50.858;4.392;2023-11-19T01:27:47;24.48;;;4.20;;
43678;SDS011;29279;50.858;4.392;2023-11-19T01:30:12;27.38;;;4.15;;
43678;SDS011;29279;50.858;4.392;2023-11-19T01:32:39;28.02;;;5.05;;
43678;SDS011;29279;50.858;4.392;2023-11-19T01:35:05;23.15;;;3.78;;
43678;SDS011;29279;50.858;4.392;2023-11-19T01:37:33;29.73;;;4.90;;
43678;SDS011;29279;50.858;4.392;2023-11-19T01:39:59;26.40;;;3.72;;
43678;SDS011;29279;50.858;4.392;2023-11-19T01:42:25;27.85;;;4.63;;
43678;SDS011;29279;50.858;4.392;2023-11-19T01:44:55;26.92;;;4.50;;
43678;SDS011;29279;50.858;4.392;2023-11-19T01:47:23;31.52;;;4.32;;
43678;SDS011;29279;50.858;4.392;2023-11-19T01:49:49;30.50;;;4.35;;
43678;SDS011;29279;50.858;4.392;2023-11-19T01:52:15;23.45;;;3.88;;
43678;SDS011;29279;50.858;4.392;2023-11-19T01:54:41;35.53;;;5.22;;
43678;SDS011;29279;50.858;4.392;2023-11-19T01:57:07;31.13;;;5.10;;
43678;SDS011;29279;50.858;4.392;2023-11-19T01:59:34;35.80;;;5.53;;
43678;SDS011;29279;50.858;4.392;2023-11-19T02:02:00;31.20;;;4.03;;
43678;SDS011;29279;50.858;4.392;2023-11-19T02:04:25;38.28;;;5.25;;
43678;SDS011;29279;50.858;4.392;2023-11-19T02:06:51;26.13;;;4.80;;
43678;SDS011;29279;50.858;4.392;2023-11-19T02:09:21;25.77;;;4.20;;
43678;SDS011;29279;50.858;4.392;2023-11-19T02:11:47;33.35;;;5.45;;
43678;SDS011;29279;50.858;4.392;2023-11-19T02:14:16;32.03;;;5.10;;
43678;SDS011;29279;50.858;4.392;2023-11-19T02:16:43;25.75;;;4.43;;
43678;SDS011;29279;50.858;4.392;2023-11-19T02:19:09;39.67;;;5.35;;
43678;SDS011;29279;50.858;4.392;2023-11-19T02:21:38;32.10;;;4.90;;
43678;SDS011;29279;50.858;4.392;2023-11-19T02:24:04;25.73;;;3.90;;
43678;SDS011;29279;50.858;4.392;2023-11-19T02:29:05;32.15;;;4.90;;
43678;SDS011;29279;50.858;4.392;2023-11-19T02:31:31;44.28;;;4.90;;
43678;SDS011;29279;50.858;4.392;2023-11-19T02:33:57;34.42;;;5.10;;
43678;SDS011;29279;50.858;4.392;2023-11-19T02:36:25;41.75;;;5.00;;
43678;SDS011;29279;50.858;4.392;2023-11-19T02:38:51;37.53;;;4.78;;
43678;SDS011;29279;50.858;4.392;2023-11-19T02:41:17;24.95;;;4.65;;
43678;SDS011;29279;50.858;4.392;2023-11-19T02:43:42;39.65;;;5.50;;
43678;SDS011;29279;50.858;4.392;2023-11-19T02:46:08;33.65;;;5.28;;
43678;SDS011;29279;50.858;4.392;2023-11-19T02:48:36;32.83;;;4.65;;
43678;SDS011;29279;50.858;4.392;2023-11-19T02:51:02;39.50;;;5.72;;
43678;SDS011;29279;50.858;4.392;2023-11-19T02:53:32;37.08;;;5.53;;
43678;SDS011;29279;50.858;4.392;2023-11-19T02:55:57;28.65;;;5.10;;
43678;SDS011;29279;50.858;4.392;2023-11-19T02:58:31;41.55;;;5.53;;
43678;SDS011;29279;50.858;4.392;2023-11-19T03:00:57;39.35;;;5.07;;
43678;SDS011;29279;50.858;4.392;2023-11-19T03:03:24;39.88;;;4.82;;
43678;SDS011;29279;50.858;4.392;2023-11-19T03:05:56;32.03;;;4.57;;
43678;SDS011;29279;50.858;4.392;2023-11-19T03:08:22;27.38;;;4.78;;
43678;SDS011;29279;50.858;4.392;2023-11-19T03:10:48;39.15;;;5.00;;
43678;SDS011;29279;50.858;4.392;2023-11-19T03:13:14;33.78;;;4.55;;
43678;SDS011;29279;50.858;4.392;2023-11-19T03:15:42;37.38;;;4.80;;
43678;SDS011;29279;50.858;4.392;2023-11-19T03:18:07;35.20;;;5.38;;
43678;SDS011;29279;50.858;4.392;2023-11-19T03:20:33;33.78;;;6.03;;
43678;SDS011;29279;50.858;4.392;2023-11-19T03:22:59;27.75;;;4.32;;
43678;SDS011;29279;50.858;4.392;2023-11-19T03:25:28;32.33;;;5.47;;
43678;SDS011;29279;50.858;4.392;2023-11-19T03:27:59;35.33;;;6.78;;
43678;SDS011;29279;50.858;4.392;2023-11-19T03:30:26;35.38;;;5.18;;
43678;SDS011;29279;50.858;4.392;2023-11-19T03:32:53;32.63;;;4.85;;
43678;SDS011;29279;50.858;4.392;2023-11-19T03:35:19;30.08;;;5.18;;
43678;SDS011;29279;50.858;4.392;2023-11-19T03:37:45;35.90;;;5.82;;
43678;SDS011;29279;50.858;4.392;2023-11-19T03:40:11;31.60;;;5.43;;
43678;SDS011;29279;50.858;4.392;2023-11-19T03:42:37;48.10;;;6.47;;
43678;SDS011;29279;50.858;4.392;2023-11-19T03:45:05;35.70;;;5.47;;
43678;SDS011;29279;50.858;4.392;2023-11-19T03:47:33;40.75;;;4.97;;
43678;SDS011;29279;50.858;4.392;2023-11-19T03:49:59;32.83;;;5.53;;
43678;SDS011;29279;50.858;4.392;2023-11-19T03:52:25;33.42;;;7.47;;
43678;SDS011;29279;50.858;4.392;2023-11-19T03:54:52;41.53;;;4.72;;
43678;SDS011;29279;50.858;4.392;2023-11-19T03:57:20;35.38;;;5.53;;
43678;SDS011;29279;50.858;4.392;2023-11-19T03:59:46;38.28;;;4.85;;
43678;SDS011;29279;50.858;4.392;2023-11-19T04:02:12;36.60;;;4.85;;
43678;SDS011;29279;50.858;4.392;2023-11-19T04:04:38;32.80;;;4.70;;
43678;SDS011;29279;50.858;4.392;2023-11-19T04:07:04;33.55;;;5.13;;
43678;SDS011;29279;50.858;4.392;2023-11-19T04:09:30;31.17;;;5.07;;
43678;SDS011;29279;50.858;4.392;2023-11-19T04:11:58;35.28;;;5.18;;
43678;SDS011;29279;50.858;4.392;2023-11-19T04:14:24;38.50;;;5.30;;
43678;SDS011;29279;50.858;4.392;2023-11-19T04:16:50;33.67;;;5.22;;
43678;SDS011;29279;50.858;4.392;2023-11-19T04:19:16;40.33;;;6.07;;
43678;SDS011;29279;50.858;4.392;2023-11-19T04:21:42;37.63;;;6.28;;
43678;SDS011;29279;50.858;4.392;2023-11-19T04:24:08;34.85;;;5.97;;
43678;SDS011;29279;50.858;4.392;2023-11-19T04:26:43;40.87;;;5.83;;
43678;SDS011;29279;50.858;4.392;2023-11-19T04:29:14;36.75;;;5.55;;
43678;SDS011;29279;50.858;4.392;2023-11-19T04:31:42;39.78;;;7.18;;
43678;SDS011;29279;50.858;4.392;2023-11-19T04:34:08;39.03;;;5.18;;
43678;SDS011;29279;50.858;4.392;2023-11-19T04:36:33;32.75;;;5.35;;
43678;SDS011;29279;50.858;4.392;2023-11-19T04:38:59;31.88;;;5.60;;
43678;SDS011;29279;50.858;4.392;2023-11-19T04:41:26;42.78;;;6.35;;
43678;SDS011;29279;50.858;4.392;2023-11-19T04:43:55;56.08;;;6.80;;
43678;SDS011;29279;50.858;4.392;2023-11-19T04:46:21;45.78;;;6.43;;
43678;SDS011;29279;50.858;4.392;2023-11-19T04:48:47;46.00;;;6.30;;
43678;SDS011;29279;50.858;4.392;2023-11-19T04:51:12;43.67;;;6.10;;
43678;SDS011;29279;50.858;4.392;2023-11-19T04:53:38;38.88;;;6.53;;
43678;SDS011;29279;50.858;4.392;2023-11-19T04:56:07;40.80;;;6.57;;
43678;SDS011;29279;50.858;4.392;2023-11-19T04:58:36;32.67;;;5.20;;
43678;SDS011;29279;50.858;4.392;2023-11-19T05:01:02;47.47;;;7.72;;
43678;SDS011;29279;50.858;4.392;2023-11-19T05:03:28;43.78;;;7.40;;
43678;SDS011;29279;50.858;4.392;2023-11-19T05:05:55;47.70;;;6.95;;
43678;SDS011;29279;50.858;4.392;2023-11-19T05:08:20;47.10;;;7.07;;
43678;SDS011;29279;50.858;4.392;2023-11-19T05:10:46;45.28;;;6.68;;
43678;SDS011;29279;50.858;4.392;2023-11-19T05:13:11;34.72;;;5.45;;
43678;SDS011;29279;50.858;4.392;2023-11-19T05:15:37;51.35;;;7.20;;
43678;SDS011;29279;50.858;4.392;2023-11-19T05:18:03;47.88;;;7.05;;
43678;SDS011;29279;50.858;4.392;2023-11-19T05:20:30;53.70;;;8.05;;
43678;SDS011;29279;50.858;4.392;2023-11-19T05:22:56;48.83;;;6.70;;
43678;SDS011;29279;50.858;4.392;2023-11-19T05:25:21;56.50;;;6.90;;
43678;SDS011;29279;50.858;4.392;2023-11-19T05:27:47;52.22;;;6.10;;
43678;SDS011;29279;50.858;4.392;2023-11-19T05:30:13;48.10;;;7.38;;
43678;SDS011;29279;50.858;4.392;2023-11-19T05:32:38;44.22;;;6.95;;
43678;SDS011;29279;50.858;4.392;2023-11-19T05:35:04;45.63;;;6.95;;
43678;SDS011;29279;50.858;4.392;2023-11-19T05:37:30;61.40;;;7.78;;
43678;SDS011;29279;50.858;4.392;2023-11-19T05:39:56;54.38;;;6.50;;
43678;SDS011;29279;50.858;4.392;2023-11-19T05:42:22;49.70;;;7.07;;
43678;SDS011;29279;50.858;4.392;2023-11-19T05:44:48;40.78;;;6.22;;
43678;SDS011;29279;50.858;4.392;2023-11-19T05:47:14;43.90;;;7.05;;
43678;SDS011;29279;50.858;4.392;2023-11-19T05:49:40;47.33;;;5.80;;
43678;SDS011;29279;50.858;4.392;2023-11-19T05:52:06;60.55;;;8.00;;
43678;SDS011;29279;50.858;4.392;2023-11-19T05:54:32;50.55;;;8.18;;
43678;SDS011;29279;50.858;4.392;2023-11-19T05:57:03;50.22;;;8.30;;
43678;SDS011;29279;50.858;4.392;2023-11-19T05:59:34;51.22;;;8.32;;
43678;SDS011;29279;50.858;4.392;2023-11-19T06:02:01;61.05;;;8.15;;
43678;SDS011;29279;50.858;4.392;2023-11-19T06:04:27;49.78;;;7.32;;
43678;SDS011;29279;50.858;4.392;2023-11-19T06:06:53;54.28;;;7.82;;
43678;SDS011;29279;50.858;4.392;2023-11-19T06:09:22;45.65;;;6.90;;
43678;SDS011;29279;50.858;4.392;2023-11-19T06:11:51;47.30;;;7.13;;
43678;SDS011;29279;50.858;4.392;2023-11-19T06:14:17;59.72;;;7.78;;
43678;SDS011;29279;50.858;4.392;2023-11-19T06:16:43;60.63;;;7.55;;
43678;SDS011;29279;50.858;4.392;2023-11-19T06:19:09;67.28;;;8.15;;
43678;SDS011;29279;50.858;4.392;2023-11-19T06:21:36;58.60;;;8.43;;
43678;SDS011;29279;50.858;4.392;2023-11-19T06:24:02;52.00;;;7.10;;
43678;SDS011;29279;50.858;4.392;2023-11-19T06:26:28;47.38;;;6.30;;
43678;SDS011;29279;50.858;4.392;2023-11-19T06:28:54;48.42;;;6.80;;
43678;SDS011;29279;50.858;4.392;2023-11-19T06:31:19;65.43;;;8.43;;
43678;SDS011;29279;50.858;4.392;2023-11-19T06:33:46;52.30;;;7.85;;
43678;SDS011;29279;50.858;4.392;2023-11-19T06:36:14;65.07;;;8.30;;
43678;SDS011;29279;50.858;4.392;2023-11-19T06:38:41;54.55;;;8.00;;
43678;SDS011;29279;50.858;4.392;2023-11-19T06:41:08;45.60;;;6.93;;
43678;SDS011;29279;50.858;4.392;2023-11-19T06:43:34;46.58;;;7.45;;
43678;SDS011;29279;50.858;4.392;2023-11-19T06:46:00;51.03;;;6.65;;
43678;SDS011;29279;50.858;4.392;2023-11-19T06:48:26;45.42;;;7.45;;
43678;SDS011;29279;50.858;4.392;2023-11-19T06:50:52;54.65;;;6.53;;
43678;SDS011;29279;50.858;4.392;2023-11-19T06:53:18;62.22;;;8.02;;
43678;SDS011;29279;50.858;4.392;2023-11-19T06:55:44;55.47;;;7.25;;
43678;SDS011;29279;50.858;4.392;2023-11-19T06:58:10;48.17;;;6.75;;
43678;SDS011;29279;50.858;4.392;2023-11-19T07:00:37;29.45;;;5.78;;
43678;SDS011;29279;50.858;4.392;2023-11-19T07:03:02;55.20;;;7.65;;
43678;SDS011;29279;50.858;4.392;2023-11-19T07:05:28;52.97;;;7.70;;
43678;SDS011;29279;50.858;4.392;2023-11-19T07:07:55;53.58;;;6.97;;
43678;SDS011;29279;50.858;4.392;2023-11-19T07:10:21;42.78;;;7.55;;
43678;SDS011;29279;50.858;4.392;2023-11-19T07:12:46;48.10;;;8.02;;
43678;SDS011;29279;50.858;4.392;2023-11-19T07:15:12;55.97;;;7.90;;
43678;SDS011;29279;50.858;4.392;2023-11-19T07:17:38;45.47;;;6.30;;
43678;SDS011;29279;50.858;4.392;2023-11-19T07:20:08;55.50;;;7.53;;
43678;SDS011;29279;50.858;4.392;2023-11-19T07:22:38;42.38;;;7.13;;
43678;SDS011;29279;50.858;4.392;2023-11-19T07:25:04;52.50;;;6.70;;
43678;SDS011;29279;50.858;4.392;2023-11-19T07:27:30;51.15;;;9.07;;
43678;SDS011;29279;50.858;4.392;2023-11-19T07:29:55;47.25;;;6.95;;
43678;SDS011;29279;50.858;4.392;2023-11-19T07:32:21;42.22;;;7.60;;
43678;SDS011;29279;50.858;4.392;2023-11-19T07:34:47;48.67;;;6.78;;
43678;SDS011;29279;50.858;4.392;2023-11-19T07:37:12;48.17;;;6.63;;
43678;SDS011;29279;50.858;4.392;2023-11-19T07:39:38;55.58;;;7.18;;
43678;SDS011;29279;50.858;4.392;2023-11-19T07:42:06;48.55;;;8.27;;
43678;SDS011;29279;50.858;4.392;2023-11-19T07:44:31;43.47;;;6.47;;
43678;SDS011;29279;50.858;4.392;2023-11-19T07:46:57;58.63;;;7.93;;
43678;SDS011;29279;50.858;4.392;2023-11-19T07:49:23;49.58;;;7.40;;
43678;SDS011;29279;50.858;4.392;2023-11-19T07:51:49;46.97;;;6.80;;
43678;SDS011;29279;50.858;4.392;2023-11-19T07:54:14;48.05;;;6.75;;
43678;SDS011;29279;50.858;4.392;2023-11-19T07:56:40;49.00;;;6.70;;
43678;SDS011;29279;50.858;4.392;2023-11-19T07:59:06;46.83;;;6.93;;
43678;SDS011;29279;50.858;4.392;2023-11-19T08:01:31;50.17;;;7.35;;
43678;SDS011;29279;50.858;4.392;2023-11-19T08:03:57;45.47;;;7.50;;
43678;SDS011;29279;50.858;4.392;2023-11-19T08:06:23;40.05;;;7.10;;
43678;SDS011;29279;50.858;4.392;2023-11-19T08:08:49;43.22;;;6.28;;
43678;SDS011;29279;50.858;4.392;2023-11-19T08:11:16;41.85;;;7.15;;
43678;SDS011;29279;50.858;4.392;2023-11-19T08:13:42;48.88;;;6.63;;
43678;SDS011;29279;50.858;4.392;2023-11-19T08:16:08;41.75;;;6.22;;
43678;SDS011;29279;50.858;4.392;2023-11-19T08:18:34;47.95;;;7.78;;
43678;SDS011;29279;50.858;4.392;2023-11-19T08:21:00;41.20;;;6.30;;
43678;SDS011;29279;50.858;4.392;2023-11-19T08:23:25;38.40;;;6.13;;
43678;SDS011;29279;50.858;4.392;2023-11-19T08:25:53;41.63;;;7.30;;
43678;SDS011;29279;50.858;4.392;2023-11-19T08:28:19;43.55;;;7.30;;
43678;SDS011;29279;50.858;4.392;2023-11-19T08:30:45;43.83;;;7.28;;
43678;SDS011;29279;50.858;4.392;2023-11-19T08:33:11;49.10;;;7.13;;
43678;SDS011;29279;50.858;4.392;2023-11-19T08:35:36;46.78;;;7.00;;
43678;SDS011;29279;50.858;4.392;2023-11-19T08:38:02;33.13;;;5.82;;
43678;SDS011;29279;50.858;4.392;2023-11-19T08:40:28;40.70;;;6.38;;
43678;SDS011;29279;50.858;4.392;2023-11-19T08:42:55;38.42;;;6.13;;
43678;SDS011;29279;50.858;4.392;2023-11-19T08:45:21;35.13;;;5.10;;
43678;SDS011;29279;50.858;4.392;2023-11-19T08:47:46;46.13;;;6.57;;
43678;SDS011;29279;50.858;4.392;2023-11-19T08:50:12;46.45;;;7.10;;
43678;SDS011;29279;50.858;4.392;2023-11-19T08:52:38;51.10;;;7.63;;
43678;SDS011;29279;50.858;4.392;2023-11-19T08:55:03;36.95;;;6.40;;
43678;SDS011;29279;50.858;4.392;2023-11-19T08:57:30;42.28;;;5.93;;
43678;SDS011;29279;50.858;4.392;2023-11-19T08:59:57;46.17;;;7.97;;
43678;SDS011;29279;50.858;4.392;2023-11-19T09:02:24;45.20;;;5.95;;
43678;SDS011;29279;50.858;4.392;2023-11-19T09:04:49;42.58;;;6.97;;
43678;SDS011;29279;50.858;4.392;2023-11-19T09:07:15;45.20;;;6.47;;
43678;SDS011;29279;50.858;4.392;2023-11-19T09:09:41;34.53;;;6.35;;
43678;SDS011;29279;50.858;4.392;2023-11-19T09:12:07;50.00;;;6.85;;
43678;SDS011;29279;50.858;4.392;2023-11-19T09:14:32;50.40;;;6.78;;
43678;SDS011;29279;50.858;4.392;2023-11-19T09:16:58;34.33;;;5.22;;
43678;SDS011;29279;50.858;4.392;2023-11-19T09:19:25;37.75;;;6.50;;
43678;SDS011;29279;50.858;4.392;2023-11-19T09:21:54;34.80;;;6.22;;
43678;SDS011;29279;50.858;4.392;2023-11-19T09:24:19;34.53;;;6.72;;
43678;SDS011;29279;50.858;4.392;2023-11-19T09:26:45;33.70;;;6.28;;
43678;SDS011;29279;50.858;4.392;2023-11-19T09:29:11;35.63;;;6.88;;
43678;SDS011;29279;50.858;4.392;2023-11-19T09:31:39;34.70;;;4.90;;
43678;SDS011;29279;50.858;4.392;2023-11-19T09:34:05;37.25;;;5.65;;
43678;SDS011;29279;50.858;4.392;2023-11-19T09:36:31;36.25;;;6.85;;
43678;SDS011;29279;50.858;4.392;2023-11-19T09:38:56;28.42;;;5.28;;
43678;SDS011;29279;50.858;4.392;2023-11-19T09:41:23;38.92;;;6.43;;
43678;SDS011;29279;50.858;4.392;2023-11-19T09:43:49;33.03;;;6.68;;
43678;SDS011;29279;50.858;4.392;2023-11-19T09:46:16;41.70;;;7.47;;
43678;SDS011;29279;50.858;4.392;2023-11-19T09:48:42;34.22;;;6.65;;
43678;SDS011;29279;50.858;4.392;2023-11-19T09:51:11;37.65;;;6.30;;
43678;SDS011;29279;50.858;4.392;2023-11-19T09:53:37;25.42;;;5.35;;
43678;SDS011;29279;50.858;4.392;2023-11-19T09:56:03;32.83;;;6.47;;
43678;SDS011;29279;50.858;4.392;2023-11-19T09:58:32;31.40;;;6.00;;
43678;SDS011;29279;50.858;4.392;2023-11-19T10:00:58;28.63;;;6.10;;
43678;SDS011;29279;50.858;4.392;2023-11-19T10:03:29;32.50;;;5.88;;
43678;SDS011;29279;50.858;4.392;2023-11-19T10:05:58;30.80;;;5.78;;
43678;SDS011;29279;50.858;4.392;2023-11-19T10:08:25;32.88;;;5.70;;
43678;SDS011;29279;50.858;4.392;2023-11-19T10:10:51;29.30;;;5.45;;
43678;SDS011;29279;50.858;4.392;2023-11-19T10:13:17;27.77;;;5.30;;
43678;SDS011;29279;50.858;4.392;2023-11-19T10:15:43;35.70;;;5.97;;
43678;SDS011;29279;50.858;4.392;2023-11-19T10:18:09;40.80;;;8.48;;
43678;SDS011;29279;50.858;4.392;2023-11-19T10:20:40;39.15;;;6.75;;
43678;SDS011;29279;50.858;4.392;2023-11-19T10:23:06;39.95;;;6.20;;
43678;SDS011;29279;50.858;4.392;2023-11-19T10:25:33;31.83;;;6.05;;
43678;SDS011;29279;50.858;4.392;2023-11-19T10:27:59;31.23;;;5.65;;
43678;SDS011;29279;50.858;4.392;2023-11-19T10:30:29;36.22;;;6.53;;
43678;SDS011;29279;50.858;4.392;2023-11-19T10:33:08;38.25;;;6.15;;
43678;SDS011;29279;50.858;4.392;2023-11-19T10:35:56;36.80;;;5.93;;
43678;SDS011;29279;50.858;4.392;2023-11-19T10:38:22;34.53;;;5.75;;
43678;SDS011;29279;50.858;4.392;2023-11-19T10:40:49;33.30;;;5.50;;
43678;SDS011;29279;50.858;4.392;2023-11-19T10:43:21;35.00;;;6.15;;
43678;SDS011;29279;50.858;4.392;2023-11-19T10:45:48;28.58;;;5.68;;
43678;SDS011;29279;50.858;4.392;2023-11-19T10:48:14;25.63;;;4.70;;
43678;SDS011;29279;50.858;4.392;2023-11-19T10:50:40;30.50;;;4.93;;
43678;SDS011;29279;50.858;4.392;2023-11-19T10:53:09;28.88;;;5.20;;
43678;SDS011;29279;50.858;4.392;2023-11-19T10:55:38;29.90;;;5.18;;
43678;SDS011;29279;50.858;4.392;2023-11-19T10:58:05;27.17;;;5.13;;
43678;SDS011;29279;50.858;4.392;2023-11-19T11:00:54;31.42;;;4.65;;
43678;SDS011;29279;50.858;4.392;2023-11-19T11:03:19;33.70;;;5.63;;
43678;SDS011;29279;50.858;4.392;2023-11-19T11:05:51;40.65;;;7.07;;
43678;SDS011;29279;50.858;4.392;2023-11-19T11:08:18;25.70;;;4.70;;
43678;SDS011;29279;50.858;4.392;2023-11-19T11:10:46;33.30;;;5.43;;
43678;SDS011;29279;50.858;4.392;2023-11-19T11:13:17;33.55;;;5.90;;
43678;SDS011;29279;50.858;4.392;2023-11-19T11:15:44;34.38;;;5.65;;
43678;SDS011;29279;50.858;4.392;2023-11-19T11:18:12;28.48;;;5.00;;
43678;SDS011;29279;50.858;4.392;2023-11-19T11:20:38;34.83;;;6.28;;
43678;SDS011;29279;50.858;4.392;2023-11-19T11:28:58;27.98;;;5.50;;
43678;SDS011;29279;50.858;4.392;2023-11-19T11:39:39;46.20;;;7.43;;
43678;SDS011;29279;50.858;4.392;2023-11-19T11:50:14;45.78;;;8.70;;
43678;SDS011;29279;50.858;4.392;2023-11-19T11:55:25;33.85;;;6.72;;
43678;SDS011;29279;50.858;4.392;2023-11-19T11:57:59;35.97;;;6.45;;
43678;SDS011;29279;50.858;4.392;2023-11-19T12:02:57;37.15;;;6.75;;
43678;SDS011;29279;50.858;4.392;2023-11-19T12:05:25;38.22;;;6.70;;
43678;SDS011;29279;50.858;4.392;2023-11-19T12:07:59;37.38;;;5.60;;
43678;SDS011;29279;50.858;4.392;2023-11-19T12:10:30;31.52;;;6.15;;
43678;SDS011;29279;50.858;4.392;2023-11-19T12:12:59;43.47;;;7.57;;
43678;SDS011;29279;50.858;4.392;2023-11-19T12:15:26;33.15;;;5.25;;
43678;SDS011;29279;50.858;4.392;2023-11-19T12:17:56;24.27;;;4.45;;
43678;SDS011;29279;50.858;4.392;2023-11-19T12:20:22;23.08;;;3.95;;
43678;SDS011;29279;50.858;4.392;2023-11-19T12:22:49;21.90;;;4.07;;
43678;SDS011;29279;50.858;4.392;2023-11-19T12:25:16;28.55;;;5.07;;
43678;SDS011;29279;50.858;4.392;2023-11-19T12:30:12;30.98;;;5.75;;
43678;SDS011;29279;50.858;4.392;2023-11-19T12:32:43;25.77;;;4.80;;
43678;SDS011;29279;50.858;4.392;2023-11-19T12:35:10;27.80;;;4.60;;
43678;SDS011;29279;50.858;4.392;2023-11-19T12:37:41;36.53;;;5.95;;
43678;SDS011;29279;50.858;4.392;2023-11-19T12:42:47;28.95;;;5.57;;
43678;SDS011;29279;50.858;4.392;2023-11-19T12:45:14;27.73;;;5.97;;
43678;SDS011;29279;50.858;4.392;2023-11-19T12:47:41;34.00;;;5.18;;
43678;SDS011;29279;50.858;4.392;2023-11-19T12:50:12;37.97;;;7.07;;
43678;SDS011;29279;50.858;4.392;2023-11-19T12:52:39;40.35;;;6.53;;
43678;SDS011;29279;50.858;4.392;2023-11-19T12:55:05;38.17;;;6.05;;
43678;SDS011;29279;50.858;4.392;2023-11-19T12:57:51;29.73;;;5.80;;
43678;SDS011;29279;50.858;4.392;2023-11-19T13:00:21;39.13;;;6.40;;
43678;SDS011;29279;50.858;4.392;2023-11-19T13:02:51;35.17;;;5.25;;
43678;SDS011;29279;50.858;4.392;2023-11-19T13:05:28;41.80;;;6.55;;
43678;SDS011;29279;50.858;4.392;2023-11-19T13:07:58;37.55;;;7.55;;
43678;SDS011;29279;50.858;4.392;2023-11-19T13:10:32;45.65;;;5.80;;
43678;SDS011;29279;50.858;4.392;2023-11-19T13:13:08;37.40;;;6.32;;
43678;SDS011;29279;50.858;4.392;2023-11-19T13:15:34;38.60;;;7.00;;
43678;SDS011;29279;50.858;4.392;2023-11-19T13:18:00;35.95;;;5.85;;
43678;SDS011;29279;50.858;4.392;2023-11-19T13:20:27;43.70;;;6.28;;
43678;SDS011;29279;50.858;4.392;2023-11-19T13:22:57;33.70;;;5.82;;
43678;SDS011;29279;50.858;4.392;2023-11-19T13:25:27;39.17;;;5.80;;
43678;SDS011;29279;50.858;4.392;2023-11-19T13:27:53;33.33;;;6.07;;
43678;SDS011;29279;50.858;4.392;2023-11-19T13:30:19;37.88;;;6.78;;
43678;SDS011;29279;50.858;4.392;2023-11-19T13:32:45;32.03;;;5.68;;
43678;SDS011;29279;50.858;4.392;2023-11-19T13:35:11;35.00;;;5.20;;
43678;SDS011;29279;50.858;4.392;2023-11-19T13:37:38;36.35;;;6.88;;
43678;SDS011;29279;50.858;4.392;2023-11-19T13:40:04;37.75;;;5.70;;
43678;SDS011;29279;50.858;4.392;2023-11-19T13:42:31;39.05;;;6.30;;
43678;SDS011;29279;50.858;4.392;2023-11-19T13:44:57;39.60;;;6.88;;
43678;SDS011;29279;50.858;4.392;2023-11-19T13:47:22;42.67;;;6.78;;
43678;SDS011;29279;50.858;4.392;2023-11-19T13:49:49;35.17;;;6.88;;
43678;SDS011;29279;50.858;4.392;2023-11-19T13:52:14;33.58;;;6.53;;
43678;SDS011;29279;50.858;4.392;2023-11-19T13:54:40;41.45;;;6.47;;
43678;SDS011;29279;50.858;4.392;2023-11-19T13:57:06;44.50;;;7.03;;
43678;SDS011;29279;50.858;4.392;2023-11-19T13:59:32;37.97;;;6.35;;
43678;SDS011;29279;50.858;4.392;2023-11-19T14:01:58;29.48;;;5.20;;
43678;SDS011;29279;50.858;4.392;2023-11-19T14:04:23;33.90;;;5.43;;
43678;SDS011;29279;50.858;4.392;2023-11-19T14:06:50;41.08;;;6.82;;
43678;SDS011;29279;50.858;4.392;2023-11-19T14:09:16;31.33;;;5.28;;
43678;SDS011;29279;50.858;4.392;2023-11-19T14:11:42;41.13;;;7.30;;
43678;SDS011;29279;50.858;4.392;2023-11-19T14:14:08;36.00;;;7.03;;
43678;SDS011;29279;50.858;4.392;2023-11-19T14:16:34;42.35;;;7.60;;
43678;SDS011;29279;50.858;4.392;2023-11-19T14:18:59;43.55;;;7.20;;
43678;SDS011;29279;50.858;4.392;2023-11-19T14:21:25;34.30;;;5.95;;
43678;SDS011;29279;50.858;4.392;2023-11-19T14:23:51;46.17;;;7.43;;
43678;SDS011;29279;50.858;4.392;2023-11-19T14:26:17;39.92;;;6.38;;
43678;SDS011;29279;50.858;4.392;2023-11-19T14:28:44;32.70;;;6.32;;
43678;SDS011;29279;50.858;4.392;2023-11-19T14:31:09;50.95;;;7.72;;
43678;SDS011;29279;50.858;4.392;2023-11-19T14:33:35;45.05;;;7.35;;
43678;SDS011;29279;50.858;4.392;2023-11-19T14:36:03;39.28;;;5.95;;
43678;SDS011;29279;50.858;4.392;2023-11-19T14:38:29;41.45;;;6.43;;
43678;SDS011;29279;50.858;4.392;2023-11-19T14:40:54;47.97;;;6.95;;
43678;SDS011;29279;50.858;4.392;2023-11-19T14:43:20;30.92;;;6.20;;
43678;SDS011;29279;50.858;4.392;2023-11-19T14:45:46;50.28;;;7.35;;
43678;SDS011;29279;50.858;4.392;2023-11-19T14:48:12;37.08;;;6.28;;
43678;SDS011;29279;50.858;4.392;2023-11-19T14:50:37;48.65;;;6.53;;
43678;SDS011;29279;50.858;4.392;2023-11-19T14:53:03;44.60;;;6.75;;
43678;SDS011;29279;50.858;4.392;2023-11-19T14:55:28;46.50;;;6.53;;
43678;SDS011;29279;50.858;4.392;2023-11-19T14:57:54;37.03;;;6.68;;
43678;SDS011;29279;50.858;4.392;2023-11-19T15:00:21;33.17;;;5.22;;
43678;SDS011;29279;50.858;4.392;2023-11-19T15:02:47;33.53;;;6.25;;
43678;SDS011;29279;50.858;4.392;2023-11-19T15:05:13;46.50;;;6.53;;
43678;SDS011;29279;50.858;4.392;2023-11-19T15:07:38;37.13;;;6.13;;